createdAt,value
2018-10-21T00:00:20.303Z,0
2018-10-21T00:01:00.839Z,0
2018-10-21T00:01:41.413Z,0
2018-10-21T00:02:22.098Z,0
2018-10-21T00:03:02.572Z,0
2018-10-21T00:03:43.125Z,0
2018-10-21T00:04:23.697Z,0
2018-10-21T00:05:04.260Z,0
2018-10-21T00:05:44.846Z,0
2018-10-21T00:06:25.416Z,0
2018-10-21T00:07:05.962Z,0
2018-10-21T00:07:46.527Z,0
2018-10-21T00:08:27.104Z,0
2018-10-21T00:09:07.707Z,0
2018-10-21T00:09:48.232Z,0
2018-10-21T00:10:28.800Z,0
2018-10-21T00:11:09.357Z,0
2018-10-21T00:11:49.925Z,0
2018-10-21T00:12:30.496Z,0
2018-10-21T00:13:11.096Z,0
2018-10-21T00:13:51.631Z,0
2018-10-21T00:14:32.196Z,0
2018-10-21T00:15:12.873Z,0
2018-10-21T00:15:53.327Z,0
2018-10-21T00:16:33.914Z,0
2018-10-21T00:17:14.465Z,0
2018-10-21T00:17:55.023Z,0
2018-10-21T00:18:35.581Z,0
2018-10-21T00:19:16.150Z,0
2018-10-21T00:19:56.699Z,0
2018-10-21T00:20:37.269Z,0
2018-10-21T00:21:17.924Z,0
2018-10-21T00:21:58.389Z,0
2018-10-21T00:22:38.943Z,0
2018-10-21T00:23:19.515Z,0
2018-10-21T00:24:00.067Z,0
2018-10-21T00:24:40.631Z,0
2018-10-21T00:25:21.199Z,0
2018-10-21T00:26:01.752Z,0
2018-10-21T00:26:42.301Z,0
2018-10-21T00:27:22.855Z,0
2018-10-21T00:28:03.430Z,0
2018-10-21T00:28:44.000Z,0
2018-10-21T00:29:24.558Z,0
2018-10-21T00:30:05.106Z,0
2018-10-21T00:30:45.685Z,0
2018-10-21T00:31:26.232Z,0
2018-10-21T00:32:06.792Z,0
2018-10-21T00:32:47.361Z,0
2018-10-21T00:33:27.966Z,0
2018-10-21T00:34:08.522Z,0
2018-10-21T00:34:49.085Z,0
2018-10-21T00:35:29.665Z,0
2018-10-21T00:36:10.236Z,0
2018-10-21T00:36:50.782Z,0
2018-10-21T00:37:31.362Z,0
2018-10-21T00:38:11.913Z,0
2018-10-21T00:38:52.479Z,0
2018-10-21T00:39:33.031Z,0
2018-10-21T00:40:13.629Z,0
2018-10-21T00:40:54.231Z,0
2018-10-21T00:41:34.815Z,0
2018-10-21T00:42:15.391Z,0
2018-10-21T00:42:55.952Z,0
2018-10-21T00:43:36.525Z,0
2018-10-21T00:44:17.078Z,0
2018-10-21T00:44:57.685Z,0
2018-10-21T00:45:38.206Z,0
2018-10-21T00:46:18.793Z,0
2018-10-21T00:46:59.329Z,0
2018-10-21T00:47:39.887Z,0
2018-10-21T00:48:20.456Z,0
2018-10-21T00:49:01.034Z,0
2018-10-21T00:49:41.592Z,0
2018-10-21T00:50:22.146Z,0
2018-10-21T00:51:02.723Z,0
2018-10-21T00:51:43.269Z,0
2018-10-21T00:52:23.845Z,0
2018-10-21T00:53:04.425Z,0
2018-10-21T00:53:45.017Z,0
2018-10-21T00:54:25.597Z,0
2018-10-21T00:55:06.167Z,0
2018-10-21T00:55:46.738Z,0
2018-10-21T00:56:27.312Z,0
2018-10-21T00:57:07.943Z,0
2018-10-21T00:57:48.456Z,0
2018-10-21T00:58:29.020Z,0
2018-10-21T00:59:09.603Z,0
2018-10-21T00:59:50.170Z,0
2018-10-21T01:00:30.713Z,0
2018-10-21T01:01:11.293Z,0
2018-10-21T01:01:51.863Z,0
2018-10-21T01:02:32.422Z,0
2018-10-21T01:03:12.993Z,0
2018-10-21T01:03:53.539Z,0
2018-10-21T01:04:34.102Z,0
2018-10-21T01:05:14.674Z,0
2018-10-21T01:05:55.239Z,0
2018-10-21T01:06:35.814Z,0
2018-10-21T01:07:16.381Z,0
2018-10-21T01:07:56.936Z,0
2018-10-21T01:08:37.499Z,0
2018-10-21T01:09:18.166Z,0
2018-10-21T01:09:58.652Z,0
2018-10-21T01:10:39.236Z,0
2018-10-21T01:11:19.781Z,0
2018-10-21T01:12:00.341Z,0
2018-10-21T01:12:40.916Z,0
2018-10-21T01:13:21.467Z,0
2018-10-21T01:14:02.023Z,0
2018-10-21T01:14:42.590Z,0
2018-10-21T01:15:23.163Z,0
2018-10-21T01:16:03.714Z,0
2018-10-21T01:16:44.272Z,0
2018-10-21T01:17:24.848Z,0
2018-10-21T01:18:05.428Z,0
2018-10-21T01:18:45.994Z,0
2018-10-21T01:19:26.559Z,0
2018-10-21T01:20:07.153Z,0
2018-10-21T01:20:47.714Z,0
2018-10-21T01:21:28.283Z,0
2018-10-21T01:22:08.852Z,0
2018-10-21T01:22:49.430Z,0
2018-10-21T01:23:30.007Z,0
2018-10-21T01:24:10.582Z,0
2018-10-21T01:24:51.149Z,0
2018-10-21T01:25:31.706Z,0
2018-10-21T01:26:12.259Z,0
2018-10-21T01:26:52.816Z,0
2018-10-21T01:27:33.375Z,0
2018-10-21T01:28:13.923Z,0
2018-10-21T01:28:54.495Z,0
2018-10-21T01:29:35.066Z,0
2018-10-21T01:30:15.645Z,0
2018-10-21T01:30:56.400Z,0
2018-10-21T01:31:36.960Z,0
2018-10-21T01:32:17.535Z,0
2018-10-21T01:32:58.186Z,0
2018-10-21T01:33:38.671Z,0
2018-10-21T01:34:19.252Z,0
2018-10-21T01:34:59.832Z,0
2018-10-21T01:35:40.384Z,0
2018-10-21T01:36:21.230Z,0
2018-10-21T01:37:01.584Z,0
2018-10-21T01:37:42.158Z,0
2018-10-21T01:38:22.824Z,0
2018-10-21T01:39:03.258Z,0
2018-10-21T01:39:43.848Z,0
2018-10-21T01:40:24.428Z,0
2018-10-21T01:41:04.977Z,0
2018-10-21T01:41:45.561Z,0
2018-10-21T01:42:26.122Z,0
2018-10-21T01:43:06.697Z,0
2018-10-21T01:43:47.269Z,0
2018-10-21T01:44:27.848Z,0
2018-10-21T01:45:08.480Z,0
2018-10-21T01:45:49.044Z,0
2018-10-21T01:46:29.620Z,0
2018-10-21T01:47:10.186Z,0
2018-10-21T01:47:50.751Z,0
2018-10-21T01:48:31.320Z,0
2018-10-21T01:49:11.937Z,0
2018-10-21T01:49:52.528Z,0
2018-10-21T01:50:33.090Z,0
2018-10-21T01:51:13.731Z,0
2018-10-21T01:51:54.222Z,0
2018-10-21T01:52:34.814Z,0
2018-10-21T01:53:15.393Z,0
2018-10-21T01:53:55.944Z,0
2018-10-21T01:54:36.483Z,0
2018-10-21T01:55:17.045Z,0
2018-10-21T01:55:57.620Z,0
2018-10-21T01:56:38.174Z,0
2018-10-21T01:57:18.859Z,0
2018-10-21T01:57:59.295Z,0
2018-10-21T01:58:39.863Z,0
2018-10-21T01:59:20.422Z,0
2018-10-21T02:00:00.975Z,0
2018-10-21T02:00:41.540Z,0
2018-10-21T02:01:22.132Z,0
2018-10-21T02:02:02.700Z,0
2018-10-21T02:02:43.251Z,0
2018-10-21T02:03:23.805Z,0
2018-10-21T02:04:04.360Z,0
2018-10-21T02:04:44.924Z,0
2018-10-21T02:05:25.493Z,0
2018-10-21T02:06:06.074Z,0
2018-10-21T02:06:46.629Z,0
2018-10-21T02:07:27.186Z,0
2018-10-21T02:08:07.748Z,0
2018-10-21T02:08:48.316Z,0
2018-10-21T02:09:28.871Z,0
2018-10-21T02:10:09.422Z,0
2018-10-21T02:10:49.987Z,0
2018-10-21T02:11:30.564Z,0
2018-10-21T02:12:11.135Z,0
2018-10-21T02:12:51.689Z,0
2018-10-21T02:13:32.238Z,0
2018-10-21T02:14:12.819Z,0
2018-10-21T02:14:53.412Z,0
2018-10-21T02:15:33.916Z,0
2018-10-21T02:16:14.474Z,0
2018-10-21T02:16:55.045Z,0
2018-10-21T02:17:35.589Z,0
2018-10-21T02:18:16.151Z,0
2018-10-21T02:18:56.697Z,0
2018-10-21T02:19:37.263Z,0
2018-10-21T02:20:17.824Z,0
2018-10-21T02:20:58.405Z,0
2018-10-21T02:21:38.946Z,0
2018-10-21T02:22:19.520Z,0
2018-10-21T02:23:00.079Z,0
2018-10-21T02:23:40.635Z,0
2018-10-21T02:24:21.199Z,0
2018-10-21T02:25:01.765Z,0
2018-10-21T02:25:42.302Z,0
2018-10-21T02:26:22.922Z,0
2018-10-21T02:27:03.447Z,0
2018-10-21T02:27:44.006Z,0
2018-10-21T02:28:24.562Z,0
2018-10-21T02:29:05.140Z,0
2018-10-21T02:29:45.692Z,0
2018-10-21T02:30:26.261Z,0
2018-10-21T02:31:06.837Z,0
2018-10-21T02:31:47.384Z,0
2018-10-21T02:32:27.949Z,0
2018-10-21T02:33:08.569Z,0
2018-10-21T02:33:49.079Z,0
2018-10-21T02:34:29.631Z,0
2018-10-21T02:35:10.198Z,0
2018-10-21T02:35:50.766Z,0
2018-10-21T02:36:31.340Z,0
2018-10-21T02:37:11.884Z,0
2018-10-21T02:37:52.440Z,0
2018-10-21T02:38:32.995Z,0
2018-10-21T02:39:13.615Z,0
2018-10-21T02:39:54.129Z,0
2018-10-21T02:40:34.701Z,0
2018-10-21T02:41:15.255Z,0
2018-10-21T02:41:55.818Z,0
2018-10-21T02:42:36.381Z,0
2018-10-21T02:43:16.934Z,0
2018-10-21T02:43:57.499Z,0
2018-10-21T02:44:38.051Z,0
2018-10-21T02:45:18.670Z,0
2018-10-21T02:45:59.176Z,0
2018-10-21T02:46:39.747Z,0
2018-10-21T02:47:20.308Z,0
2018-10-21T02:48:00.875Z,0
2018-10-21T02:48:41.427Z,0
2018-10-21T02:49:21.985Z,0
2018-10-21T02:50:02.538Z,0
2018-10-21T02:50:43.097Z,0
2018-10-21T02:51:23.663Z,0
2018-10-21T02:52:04.225Z,0
2018-10-21T02:52:44.778Z,0
2018-10-21T02:53:25.331Z,0
2018-10-21T02:54:05.894Z,0
2018-10-21T02:54:46.453Z,0
2018-10-21T02:55:27.049Z,0
2018-10-21T02:56:07.607Z,0
2018-10-21T02:56:48.166Z,0
2018-10-21T02:57:28.715Z,0
2018-10-21T02:58:09.270Z,0
2018-10-21T02:58:49.821Z,0
2018-10-21T02:59:30.365Z,0
2018-10-21T03:00:10.924Z,0
2018-10-21T03:00:51.478Z,0
2018-10-21T03:01:32.030Z,0
2018-10-21T03:02:12.588Z,0
2018-10-21T03:02:53.141Z,0
2018-10-21T03:03:33.697Z,0
2018-10-21T03:04:14.296Z,0
2018-10-21T03:04:54.837Z,0
2018-10-21T03:05:35.406Z,0
2018-10-21T03:06:15.957Z,0
2018-10-21T03:06:56.534Z,0
2018-10-21T03:07:37.094Z,0
2018-10-21T03:08:17.666Z,0
2018-10-21T03:08:59.067Z,0
2018-10-21T03:09:38.801Z,0
2018-10-21T03:10:19.357Z,0
2018-10-21T03:10:59.915Z,0
2018-10-21T03:11:40.487Z,0
2018-10-21T03:12:21.058Z,0
2018-10-21T03:13:01.621Z,0
2018-10-21T03:13:42.177Z,0
2018-10-21T03:14:22.737Z,0
2018-10-21T03:15:03.358Z,0
2018-10-21T03:15:43.871Z,0
2018-10-21T03:16:24.434Z,0
2018-10-21T03:17:04.995Z,0
2018-10-21T03:17:45.538Z,0
2018-10-21T03:18:26.185Z,0
2018-10-21T03:19:06.650Z,0
2018-10-21T03:19:47.199Z,0
2018-10-21T03:20:27.773Z,0
2018-10-21T03:21:08.404Z,0
2018-10-21T03:21:48.924Z,0
2018-10-21T03:22:29.440Z,0
2018-10-21T03:23:10.014Z,0
2018-10-21T03:23:50.570Z,0
2018-10-21T03:24:31.158Z,0
2018-10-21T03:25:11.716Z,0
2018-10-21T03:25:52.267Z,0
2018-10-21T03:26:32.841Z,0
2018-10-21T03:27:13.533Z,0
2018-10-21T03:27:53.944Z,0
2018-10-21T03:28:34.533Z,0
2018-10-21T03:29:15.101Z,0
2018-10-21T03:29:55.660Z,0
2018-10-21T03:30:36.235Z,0
2018-10-21T03:31:16.830Z,0
2018-10-21T03:31:57.371Z,0
2018-10-21T03:32:37.938Z,0
2018-10-21T03:33:18.890Z,0
2018-10-21T03:33:59.163Z,0
2018-10-21T03:34:39.612Z,0
2018-10-21T03:35:20.171Z,0
2018-10-21T03:36:00.734Z,0
2018-10-21T03:36:41.298Z,0
2018-10-21T03:37:21.850Z,0
2018-10-21T03:38:02.424Z,0
2018-10-21T03:38:43.002Z,0
2018-10-21T03:39:23.578Z,0
2018-10-21T03:40:04.154Z,0
2018-10-21T03:40:44.711Z,0
2018-10-21T03:41:25.262Z,0
2018-10-21T03:42:05.835Z,0
2018-10-21T03:42:46.408Z,0
2018-10-21T03:43:26.981Z,0
2018-10-21T03:44:07.533Z,0
2018-10-21T03:44:48.103Z,0
2018-10-21T03:45:28.665Z,0
2018-10-21T03:46:09.292Z,0
2018-10-21T03:46:49.791Z,0
2018-10-21T03:47:30.358Z,0
2018-10-21T03:48:10.945Z,0
2018-10-21T03:48:51.525Z,0
2018-10-21T03:49:32.102Z,0
2018-10-21T03:50:12.646Z,0
2018-10-21T03:50:53.199Z,0
2018-10-21T03:51:33.759Z,0
2018-10-21T03:52:14.437Z,0
2018-10-21T03:52:54.892Z,0
2018-10-21T03:53:35.463Z,0
2018-10-21T03:54:16.027Z,0
2018-10-21T03:54:56.583Z,0
2018-10-21T03:55:37.164Z,0
2018-10-21T03:56:17.704Z,0
2018-10-21T03:56:58.284Z,0
2018-10-21T03:57:38.848Z,0
2018-10-21T03:58:19.400Z,0
2018-10-21T03:58:59.955Z,0
2018-10-21T03:59:40.520Z,0
2018-10-21T04:00:21.077Z,0
2018-10-21T04:01:01.639Z,0
2018-10-21T04:01:42.216Z,0
2018-10-21T04:02:22.770Z,0
2018-10-21T04:03:04.013Z,0
2018-10-21T04:03:43.862Z,0
2018-10-21T04:04:24.421Z,0
2018-10-21T04:05:04.984Z,0
2018-10-21T04:05:45.534Z,0
2018-10-21T04:06:26.094Z,0
2018-10-21T04:07:06.681Z,0
2018-10-21T04:07:47.229Z,0
2018-10-21T04:08:27.800Z,0
2018-10-21T04:09:08.358Z,0
2018-10-21T04:09:48.927Z,0
2018-10-21T04:10:29.477Z,0
2018-10-21T04:11:10.065Z,0
2018-10-21T04:11:50.673Z,0
2018-10-21T04:12:31.247Z,0
2018-10-21T04:13:11.803Z,0
2018-10-21T04:13:52.375Z,0
2018-10-21T04:14:32.953Z,0
2018-10-21T04:15:13.507Z,0
2018-10-21T04:15:54.132Z,0
2018-10-21T04:16:34.653Z,0
2018-10-21T04:17:15.218Z,0
2018-10-21T04:17:55.777Z,0
2018-10-21T04:18:36.324Z,0
2018-10-21T04:19:16.883Z,0
2018-10-21T04:19:57.446Z,0
2018-10-21T04:20:38.007Z,0
2018-10-21T04:21:18.588Z,0
2018-10-21T04:21:59.187Z,0
2018-10-21T04:22:39.727Z,0
2018-10-21T04:23:20.268Z,0
2018-10-21T04:24:00.816Z,0
2018-10-21T04:24:41.382Z,0
2018-10-21T04:25:21.941Z,0
2018-10-21T04:26:02.552Z,0
2018-10-21T04:26:43.114Z,0
2018-10-21T04:27:23.668Z,0
2018-10-21T04:28:04.310Z,0
2018-10-21T04:28:44.792Z,0
2018-10-21T04:29:25.336Z,0
2018-10-21T04:30:05.919Z,0
2018-10-21T04:30:46.477Z,0
2018-10-21T04:31:27.032Z,0
2018-10-21T04:32:07.571Z,0
2018-10-21T04:32:48.139Z,0
2018-10-21T04:33:28.713Z,0
2018-10-21T04:34:09.413Z,0
2018-10-21T04:34:49.891Z,0
2018-10-21T04:35:30.543Z,0
2018-10-21T04:36:11.050Z,0
2018-10-21T04:36:51.604Z,0
2018-10-21T04:37:32.182Z,0
2018-10-21T04:38:12.751Z,0
2018-10-21T04:38:53.316Z,0
2018-10-21T04:39:33.846Z,0
2018-10-21T04:40:15.080Z,0
2018-10-21T04:40:54.990Z,0
2018-10-21T04:41:35.563Z,0
2018-10-21T04:42:16.116Z,0
2018-10-21T04:42:56.744Z,0
2018-10-21T04:43:37.267Z,0
2018-10-21T04:44:17.827Z,0
2018-10-21T04:44:58.398Z,0
2018-10-21T04:45:38.948Z,0
2018-10-21T04:46:19.496Z,0
2018-10-21T04:47:00.193Z,0
2018-10-21T04:47:40.657Z,0
2018-10-21T04:48:21.204Z,0
2018-10-21T04:49:01.757Z,0
2018-10-21T04:49:42.305Z,0
2018-10-21T04:50:22.851Z,0
2018-10-21T04:51:03.415Z,0
2018-10-21T04:51:43.972Z,0
2018-10-21T04:52:24.550Z,0
2018-10-21T04:53:05.105Z,0
2018-10-21T04:53:45.661Z,0
2018-10-21T04:54:26.217Z,0
2018-10-21T04:55:06.812Z,0
2018-10-21T04:55:47.367Z,0
2018-10-21T04:56:27.927Z,0
2018-10-21T04:57:08.493Z,0
2018-10-21T04:57:49.053Z,0
2018-10-21T04:58:29.610Z,0
2018-10-21T04:59:10.178Z,0
2018-10-21T04:59:50.725Z,0
2018-10-21T05:00:32.099Z,0
2018-10-21T05:01:11.844Z,0
2018-10-21T05:01:52.419Z,0
2018-10-21T05:02:32.979Z,0
2018-10-21T05:03:13.543Z,0
2018-10-21T05:03:54.126Z,0
2018-10-21T05:04:34.667Z,0
2018-10-21T05:05:15.223Z,0
2018-10-21T05:05:55.786Z,0
2018-10-21T05:06:36.342Z,0
2018-10-21T05:07:16.905Z,0
2018-10-21T05:07:57.456Z,0
2018-10-21T05:08:38.026Z,0
2018-10-21T05:09:18.579Z,0
2018-10-21T05:09:59.140Z,0
2018-10-21T05:10:39.779Z,0
2018-10-21T05:11:20.277Z,0
2018-10-21T05:12:00.827Z,0
2018-10-21T05:12:41.402Z,0
2018-10-21T05:13:21.965Z,0
2018-10-21T05:14:02.538Z,0
2018-10-21T05:14:43.092Z,0
2018-10-21T05:15:23.656Z,0
2018-10-21T05:16:04.265Z,0
2018-10-21T05:16:44.896Z,0
2018-10-21T05:17:25.355Z,0
2018-10-21T05:18:05.919Z,0
2018-10-21T05:18:46.493Z,0
2018-10-21T05:19:27.072Z,0
2018-10-21T05:20:07.632Z,0
2018-10-21T05:20:48.241Z,0
2018-10-21T05:21:28.752Z,0
2018-10-21T05:22:09.401Z,0
2018-10-21T05:22:49.862Z,0
2018-10-21T05:23:30.422Z,0
2018-10-21T05:24:11.010Z,0
2018-10-21T05:24:51.572Z,0
2018-10-21T05:25:32.127Z,0
2018-10-21T05:26:12.674Z,0
2018-10-21T05:26:53.243Z,0
2018-10-21T05:27:33.802Z,0
2018-10-21T05:28:15.102Z,0
2018-10-21T05:28:54.947Z,0
2018-10-21T05:29:35.489Z,0
2018-10-21T05:30:16.056Z,0
2018-10-21T05:30:56.638Z,0
2018-10-21T05:31:37.195Z,0
2018-10-21T05:32:17.753Z,0
2018-10-21T05:32:58.309Z,0
2018-10-21T05:33:38.862Z,0
2018-10-21T05:34:19.442Z,0
2018-10-21T05:35:00.011Z,0
2018-10-21T05:35:40.558Z,0
2018-10-21T05:36:21.134Z,0
2018-10-21T05:37:01.696Z,0
2018-10-21T05:37:42.249Z,0
2018-10-21T05:38:22.803Z,0
2018-10-21T05:39:03.385Z,0
2018-10-21T05:39:43.953Z,0
2018-10-21T05:40:24.529Z,0
2018-10-21T05:41:05.097Z,5
2018-10-21T05:41:45.641Z,5
2018-10-21T05:42:26.198Z,5
2018-10-21T05:43:06.792Z,5
2018-10-21T05:43:47.382Z,5
2018-10-21T05:44:27.921Z,5
2018-10-21T05:45:08.483Z,5
2018-10-21T05:45:49.047Z,5
2018-10-21T05:46:29.631Z,5
2018-10-21T05:47:10.230Z,5
2018-10-21T05:47:50.752Z,5
2018-10-21T05:48:31.304Z,5
2018-10-21T05:49:11.865Z,5
2018-10-21T05:49:52.424Z,5
2018-10-21T05:50:32.984Z,10
2018-10-21T05:51:13.571Z,10
2018-10-21T05:51:54.176Z,10
2018-10-21T05:52:34.689Z,10
2018-10-21T05:53:15.254Z,10
2018-10-21T05:53:55.822Z,10
2018-10-21T05:54:36.375Z,10
2018-10-21T05:55:16.927Z,10
2018-10-21T05:55:57.483Z,10
2018-10-21T05:56:38.039Z,10
2018-10-21T05:57:18.595Z,15
2018-10-21T05:57:59.251Z,15
2018-10-21T05:58:39.721Z,15
2018-10-21T05:59:20.279Z,15
2018-10-21T06:00:00.854Z,15
2018-10-21T06:00:41.418Z,15
2018-10-21T06:01:21.980Z,15
2018-10-21T06:02:02.544Z,15
2018-10-21T06:02:43.131Z,15
2018-10-21T06:03:23.669Z,20
2018-10-21T06:04:04.298Z,20
2018-10-21T06:04:44.780Z,20
2018-10-21T06:05:25.338Z,20
2018-10-21T06:06:05.922Z,20
2018-10-21T06:06:46.485Z,20
2018-10-21T06:07:27.076Z,20
2018-10-21T06:08:07.634Z,20
2018-10-21T06:08:48.180Z,25
2018-10-21T06:09:28.771Z,25
2018-10-21T06:10:09.395Z,25
2018-10-21T06:10:49.926Z,25
2018-10-21T06:11:30.521Z,25
2018-10-21T06:12:11.060Z,25
2018-10-21T06:12:51.630Z,25
2018-10-21T06:13:32.181Z,25
2018-10-21T06:14:12.744Z,25
2018-10-21T06:14:53.315Z,30
2018-10-21T06:15:33.871Z,30
2018-10-21T06:16:14.487Z,30
2018-10-21T06:16:54.985Z,30
2018-10-21T06:17:35.559Z,30
2018-10-21T06:18:16.136Z,30
2018-10-21T06:18:56.749Z,30
2018-10-21T06:19:37.299Z,30
2018-10-21T06:20:17.858Z,30
2018-10-21T06:20:58.441Z,35
2018-10-21T06:21:39.076Z,35
2018-10-21T06:22:19.627Z,35
2018-10-21T06:23:00.188Z,35
2018-10-21T06:23:40.762Z,35
2018-10-21T06:24:21.368Z,35
2018-10-21T06:25:01.964Z,35
2018-10-21T06:25:42.506Z,40
2018-10-21T06:26:23.056Z,40
2018-10-21T06:27:03.625Z,40
2018-10-21T06:27:44.215Z,40
2018-10-21T06:28:24.744Z,40
2018-10-21T06:29:05.295Z,40
2018-10-21T06:29:45.853Z,40
2018-10-21T06:30:26.417Z,40
2018-10-21T06:31:07.005Z,40
2018-10-21T06:31:47.538Z,40
2018-10-21T06:32:28.105Z,45
2018-10-21T06:33:08.688Z,45
2018-10-21T06:33:49.267Z,45
2018-10-21T06:34:29.804Z,45
2018-10-21T06:35:10.375Z,45
2018-10-21T06:35:50.926Z,45
2018-10-21T06:36:31.543Z,45
2018-10-21T06:37:12.052Z,45
2018-10-21T06:37:52.621Z,50
2018-10-21T06:38:33.183Z,50
2018-10-21T06:39:13.853Z,50
2018-10-21T06:39:54.302Z,50
2018-10-21T06:40:34.891Z,50
2018-10-21T06:41:15.450Z,50
2018-10-21T06:41:56.006Z,55
2018-10-21T06:42:36.565Z,55
2018-10-21T06:43:17.139Z,55
2018-10-21T06:43:57.688Z,55
2018-10-21T06:44:38.246Z,55
2018-10-21T06:45:18.939Z,55
2018-10-21T06:45:59.383Z,55
2018-10-21T06:46:39.945Z,55
2018-10-21T06:47:20.507Z,55
2018-10-21T06:48:01.071Z,60
2018-10-21T06:48:41.665Z,60
2018-10-21T06:49:22.213Z,60
2018-10-21T06:50:02.761Z,60
2018-10-21T06:50:43.308Z,60
2018-10-21T06:51:23.873Z,60
2018-10-21T06:52:04.426Z,60
2018-10-21T06:52:44.974Z,60
2018-10-21T06:53:25.532Z,60
2018-10-21T06:54:06.119Z,60
2018-10-21T06:54:46.696Z,65
2018-10-21T06:55:27.285Z,65
2018-10-21T06:56:07.855Z,65
2018-10-21T06:56:48.535Z,70
2018-10-21T06:57:29.129Z,70
2018-10-21T06:58:09.534Z,70
2018-10-21T06:58:50.101Z,70
2018-10-21T06:59:30.660Z,75
2018-10-21T07:00:11.239Z,75
2018-10-21T07:00:51.895Z,75
2018-10-21T07:01:32.607Z,75
2018-10-21T07:02:13.660Z,75
2018-10-21T07:02:54.232Z,75
2018-10-21T07:03:35.045Z,75
2018-10-21T07:04:15.655Z,75
2018-10-21T07:04:56.175Z,75
2018-10-21T07:05:36.830Z,75
2018-10-21T07:06:17.517Z,75
2018-10-21T07:06:58.224Z,75
2018-10-21T07:07:38.881Z,75
2018-10-21T07:08:19.526Z,75
2018-10-21T07:09:00.187Z,80
2018-10-21T07:09:40.749Z,80
2018-10-21T07:10:21.692Z,80
2018-10-21T07:11:02.659Z,80
2018-10-21T07:11:44.424Z,80
2018-10-21T07:12:24.985Z,85
2018-10-21T07:13:05.747Z,85
2018-10-21T07:13:46.807Z,85
2018-10-21T07:14:27.355Z,85
2018-10-21T07:15:08.040Z,85
2018-10-21T07:15:48.524Z,85
2018-10-21T07:16:29.216Z,85
2018-10-21T07:17:09.899Z,85
2018-10-21T07:17:50.806Z,85
2018-10-21T07:18:31.647Z,85
2018-10-21T07:19:12.542Z,85
2018-10-21T07:19:53.363Z,85
2018-10-21T07:20:34.777Z,85
2018-10-21T07:21:15.631Z,90
2018-10-21T07:21:56.800Z,90
2018-10-21T07:22:37.685Z,90
2018-10-21T07:23:18.483Z,90
2018-10-21T07:23:59.360Z,90
2018-10-21T07:24:40.001Z,90
2018-10-21T07:25:20.981Z,90
2018-10-21T07:26:01.899Z,90
2018-10-21T07:26:43.014Z,90
2018-10-21T07:27:23.899Z,95
2018-10-21T07:28:04.701Z,95
2018-10-21T07:28:45.584Z,95
2018-10-21T07:29:26.152Z,95
2018-10-21T07:30:06.952Z,95
2018-10-21T07:30:47.552Z,95
2018-10-21T07:31:28.126Z,100
2018-10-21T07:32:08.750Z,100
2018-10-21T07:32:49.300Z,100
2018-10-21T07:33:29.893Z,100
2018-10-21T07:34:10.888Z,105
2018-10-21T07:34:51.293Z,105
2018-10-21T07:35:31.912Z,105
2018-10-21T07:36:12.505Z,105
2018-10-21T07:36:53.086Z,105
2018-10-21T07:37:33.698Z,105
2018-10-21T07:38:14.382Z,110
2018-10-21T07:38:54.962Z,110
2018-10-21T07:39:35.572Z,110
2018-10-21T07:40:16.330Z,110
2018-10-21T07:40:57.016Z,110
2018-10-21T07:41:37.728Z,115
2018-10-21T07:42:18.321Z,115
2018-10-21T07:42:58.990Z,120
2018-10-21T07:43:39.609Z,120
2018-10-21T07:44:20.236Z,125
2018-10-21T07:45:01.011Z,250
2018-10-21T07:45:41.774Z,645
2018-10-21T07:46:22.450Z,1135
2018-10-21T07:47:03.249Z,1520
2018-10-21T07:47:44.027Z,1575
2018-10-21T07:48:24.733Z,1585
2018-10-21T07:49:05.375Z,1565
2018-10-21T07:49:46.244Z,1525
2018-10-21T07:50:26.906Z,1420
2018-10-21T07:51:07.500Z,1340
2018-10-21T07:51:48.205Z,1355
2018-10-21T07:52:28.913Z,1380
2018-10-21T07:53:09.526Z,1450
2018-10-21T07:53:50.142Z,1500
2018-10-21T07:54:30.793Z,1535
2018-10-21T07:55:11.430Z,1485
2018-10-21T07:55:52.060Z,1450
2018-10-21T07:56:32.641Z,1430
2018-10-21T07:57:13.344Z,1505
2018-10-21T07:57:53.984Z,1580
2018-10-21T07:58:34.631Z,1600
2018-10-21T07:59:16.031Z,1615
2018-10-21T07:59:56.635Z,1600
2018-10-21T08:00:37.265Z,1550
2018-10-21T08:01:17.899Z,1515
2018-10-21T08:01:58.458Z,1520
2018-10-21T08:02:39.067Z,1555
2018-10-21T08:03:19.650Z,1530
2018-10-21T08:04:00.237Z,1500
2018-10-21T08:04:40.800Z,1510
2018-10-21T08:05:21.387Z,1530
2018-10-21T08:06:02.033Z,1525
2018-10-21T08:06:42.632Z,1510
2018-10-21T08:07:23.224Z,1540
2018-10-21T08:08:03.849Z,1565
2018-10-21T08:08:44.638Z,1610
2018-10-21T08:09:25.256Z,1635
2018-10-21T08:10:05.916Z,1630
2018-10-21T08:10:46.519Z,1660
2018-10-21T08:11:27.076Z,1645
2018-10-21T08:12:07.815Z,1600
2018-10-21T08:12:48.404Z,1550
2018-10-21T08:13:28.985Z,1565
2018-10-21T08:14:09.579Z,1575
2018-10-21T08:14:50.308Z,1555
2018-10-21T08:15:30.757Z,1535
2018-10-21T08:16:11.643Z,1565
2018-10-21T08:16:52.140Z,1550
2018-10-21T08:17:32.717Z,1540
2018-10-21T08:18:13.302Z,1565
2018-10-21T08:18:53.978Z,1580
2018-10-21T08:19:34.743Z,1575
2018-10-21T08:20:15.364Z,1600
2018-10-21T08:20:55.945Z,1590
2018-10-21T08:21:36.896Z,1565
2018-10-21T08:22:17.596Z,1565
2018-10-21T08:22:58.025Z,1565
2018-10-21T08:23:38.875Z,1535
2018-10-21T08:24:19.569Z,1525
2018-10-21T08:25:00.157Z,1560
2018-10-21T08:25:40.746Z,1605
2018-10-21T08:26:21.343Z,1650
2018-10-21T08:27:02.072Z,1660
2018-10-21T08:27:42.840Z,1660
2018-10-21T08:28:23.412Z,1625
2018-10-21T08:29:03.983Z,1595
2018-10-21T08:29:44.540Z,1545
2018-10-21T08:30:25.137Z,1540
2018-10-21T08:31:05.690Z,1550
2018-10-21T08:31:46.282Z,1530
2018-10-21T08:32:26.862Z,1490
2018-10-21T08:33:07.516Z,1435
2018-10-21T08:33:48.178Z,1505
2018-10-21T08:34:28.797Z,1510
2018-10-21T08:35:09.408Z,1575
2018-10-21T08:35:50.013Z,1560
2018-10-21T08:36:30.597Z,1560
2018-10-21T08:37:11.168Z,1510
2018-10-21T08:37:51.756Z,1460
2018-10-21T08:38:32.337Z,1335
2018-10-21T08:39:12.922Z,1055
2018-10-21T08:39:53.606Z,710
2018-10-21T08:40:34.189Z,475
2018-10-21T08:41:15.262Z,420
2018-10-21T08:41:56.595Z,405
2018-10-21T08:42:38.037Z,395
2018-10-21T08:43:19.277Z,380
2018-10-21T08:44:01.296Z,370
2018-10-21T08:44:42.405Z,365
2018-10-21T08:45:23.650Z,350
2018-10-21T08:46:05.180Z,340
2018-10-21T08:46:46.449Z,335
2018-10-21T08:47:29.578Z,320
2018-10-21T08:48:10.992Z,310
2018-10-21T08:48:53.274Z,300
2018-10-21T08:49:36.343Z,290
2018-10-21T08:50:18.538Z,280
2018-10-21T08:50:59.746Z,275
2018-10-21T08:51:41.703Z,265
2018-10-21T08:52:23.855Z,265
2018-10-21T08:53:04.798Z,255
2018-10-21T08:53:45.442Z,245
2018-10-21T08:54:26.027Z,240
2018-10-21T08:55:08.106Z,230
2018-10-21T08:55:48.860Z,225
2018-10-21T08:56:29.438Z,215
2018-10-21T08:57:10.038Z,205
2018-10-21T08:57:50.651Z,200
2018-10-21T08:58:31.212Z,190
2018-10-21T08:59:11.818Z,185
2018-10-21T08:59:52.434Z,185
2018-10-21T09:00:33.031Z,175
2018-10-21T09:01:13.694Z,165
2018-10-21T09:01:54.219Z,155
2018-10-21T09:02:34.783Z,150
2018-10-21T09:03:15.358Z,150
2018-10-21T09:03:55.958Z,150
2018-10-21T09:04:36.533Z,150
2018-10-21T09:05:17.126Z,150
2018-10-21T09:05:57.676Z,145
2018-10-21T09:06:39.319Z,145
2018-10-21T09:07:19.962Z,140
2018-10-21T09:08:00.606Z,140
2018-10-21T09:08:41.351Z,135
2018-10-21T09:09:21.921Z,135
2018-10-21T09:10:02.728Z,135
2018-10-21T09:10:44.654Z,135
2018-10-21T09:11:25.077Z,135
2018-10-21T09:12:05.655Z,135
2018-10-21T09:12:46.252Z,135
2018-10-21T09:13:26.843Z,130
2018-10-21T09:14:07.417Z,130
2018-10-21T09:14:49.000Z,130
2018-10-21T09:15:30.064Z,130
2018-10-21T09:16:10.746Z,125
2018-10-21T09:16:51.189Z,125
2018-10-21T09:17:31.750Z,125
2018-10-21T09:18:12.373Z,125
2018-10-21T09:18:53.091Z,125
2018-10-21T09:19:33.661Z,125
2018-10-21T09:20:14.208Z,130
2018-10-21T09:20:54.781Z,130
2018-10-21T09:21:37.196Z,130
2018-10-21T09:22:17.904Z,125
2018-10-21T09:22:58.516Z,125
2018-10-21T09:23:39.137Z,125
2018-10-21T09:24:19.669Z,125
2018-10-21T09:25:00.507Z,120
2018-10-21T09:25:43.054Z,120
2018-10-21T09:26:23.614Z,120
2018-10-21T09:27:04.247Z,120
2018-10-21T09:27:44.848Z,120
2018-10-21T09:28:25.449Z,120
2018-10-21T09:29:06.096Z,120
2018-10-21T09:29:46.727Z,115
2018-10-21T09:30:27.316Z,115
2018-10-21T09:31:07.957Z,115
2018-10-21T09:31:48.493Z,115
2018-10-21T09:32:29.060Z,115
2018-10-21T09:33:09.897Z,115
2018-10-21T09:33:50.453Z,115
2018-10-21T09:34:31.037Z,115
2018-10-21T09:35:11.604Z,110
2018-10-21T09:35:52.202Z,110
2018-10-21T09:36:32.765Z,110
2018-10-21T09:37:13.659Z,110
2018-10-21T09:37:54.162Z,110
2018-10-21T09:38:34.739Z,110
2018-10-21T09:39:15.287Z,105
2018-10-21T09:39:55.871Z,105
2018-10-21T09:40:36.529Z,105
2018-10-21T09:41:17.082Z,105
2018-10-21T09:41:57.677Z,105
2018-10-21T09:42:38.237Z,105
2018-10-21T09:43:18.822Z,105
2018-10-21T09:43:59.397Z,105
2018-10-21T09:44:40.044Z,100
2018-10-21T09:45:20.645Z,100